createdAt,value
2023-05-09T00:10:34.477Z,101.25
2023-05-09T00:39:18.826Z,101.87
2023-05-09T01:08:11.892Z,102.14
2023-05-09T01:37:05.624Z,102.01
2023-05-09T02:05:49.701Z,103.85
2023-05-09T02:34:38.947Z,101.77
2023-05-09T03:03:30.185Z,103.92
2023-05-09T03:32:06.859Z,102.83
2023-05-09T04:00:55.881Z,103.94
2023-05-09T04:29:37.572Z,103.07
2023-05-09T04:58:29.845Z,103.73
2023-05-09T05:27:06.491Z,102.75
2023-05-09T05:55:50.901Z,102.17
2023-05-09T06:24:40.116Z,96.93
2023-05-09T06:53:23.320Z,72.85
2023-05-09T07:22:24.569Z,78.23
2023-05-09T07:51:00.495Z,76.9
2023-05-09T08:19:45.202Z,70.94
2023-05-09T08:49:00.040Z,70.03
2023-05-09T09:17:39.303Z,74.72
2023-05-09T10:14:50.326Z,70.92
2023-05-09T10:43:23.902Z,65.95
2023-05-09T11:12:01.604Z,63.16
2023-05-09T11:40:45.016Z,59.41
2023-05-09T12:09:24.165Z,61.19
2023-05-09T12:38:21.037Z,60.53
2023-05-09T13:06:56.664Z,59.31
2023-05-09T13:35:21.040Z,59.46
2023-05-09T14:03:42.464Z,60.3
2023-05-09T14:32:18.964Z,62.71
2023-05-09T15:00:30.345Z,65.38
2023-05-09T15:28:45.059Z,72
2023-05-09T15:57:18.586Z,83.02
2023-05-09T16:25:49.173Z,85.08
2023-05-09T16:54:36.994Z,89.66
2023-05-09T17:23:23.431Z,89.22
2023-05-09T17:51:42.854Z,88.26
2023-05-09T18:20:17.654Z,88.96
2023-05-09T18:48:35.069Z,90.24
2023-05-09T19:17:07.253Z,90.96
2023-05-09T19:45:32.813Z,93.36
2023-05-09T20:14:23.389Z,96.52
2023-05-09T20:42:42.806Z,99.46
2023-05-09T21:11:09.524Z,103.55
2023-05-09T21:39:45.563Z,104.5
2023-05-09T22:08:21.491Z,104.5
2023-05-09T22:37:03.192Z,104.5
2023-05-09T23:05:48.762Z,104.5
2023-05-09T23:34:14.285Z,104.5
